Time;durP1;ratioP1;P1;durP2;ratioP2;P2;SDS_P1;SDS_P2;PMS_P1;PMS_P2;Temp;Humidity;BMP_temperature;BMP_pressure;BME280_temperature;BME280_humidity;BME280_pressure;Samples;Min_cycle;Max_cycle;Signal;HPM_P1;HPM_P2
2022/12/17 13:07:46;;;;;;;11.80;9.38;;;;;;;-3.29;100.00;102280.00;10544345;28;20059;-66
2022/12/17 13:12:49;;;;;;;33.50;18.70;;;;;;;-3.17;100.00;102277.03;10542838;28;20060;-65
2022/12/17 13:18:17;;;;;;;27.02;15.60;;;;;;;-3.12;100.00;102278.06;10544010;28;20446;-67
2022/12/17 13:23:32;;;;;;;34.55;19.38;;;;;;;-3.13;100.00;102278.91;10504754;28;20600;-66
2022/12/17 13:28:35;;;;;;;17.58;11.13;;;;;;;-3.30;100.00;102278.25;10501327;28;20064;-65
2022/12/17 13:33:48;;;;;;;23.63;15.30;;;;;;;-3.29;100.00;102261.25;10502149;28;20069;-67
2022/12/17 13:39:01;;;;;;;16.02;10.57;;;;;;;-3.58;100.00;102266.97;10501172;28;20403;-68
2022/12/17 13:44:23;;;;;;;42.20;20.65;;;;;;;-3.24;100.00;102263.16;10498863;28;20539;-67
2022/12/17 13:49:30;;;;;;;42.13;20.75;;;;;;;-3.32;100.00;102261.13;10499391;28;20433;-67
2022/12/17 13:54:32;;;;;;;28.15;17.60;;;;;;;-3.21;100.00;102267.53;10499538;28;20064;-67
2022/12/17 13:59:34;;;;;;;19.90;11.70;;;;;;;-3.29;100.00;102274.03;10498755;28;20579;-66
2022/12/17 14:04:38;;;;;;;30.85;17.02;;;;;;;-3.49;100.00;102280.09;10497878;28;20157;-66
2022/12/17 14:09:43;;;;;;;20.98;14.32;;;;;;;-3.72;100.00;102279.19;10498205;28;20075;-67
2022/12/17 14:14:49;;;;;;;35.42;18.83;;;;;;;-3.63;100.00;102274.44;10496282;28;20118;-68
2022/12/17 14:19:59;;;;;;;42.55;21.67;;;;;;;-3.57;100.00;102278.03;10497796;28;20471;-68
2022/12/17 14:25:01;;;;;;;37.80;17.40;;;;;;;-3.59;100.00;102294.97;10497330;28;20083;-66
2022/12/17 14:30:22;;;;;;;32.47;17.83;;;;;;;-3.76;100.00;102279.88;10497282;28;20472;-68
2022/12/17 14:35:29;;;;;;;35.53;17.63;;;;;;;-3.75;100.00;102286.72;10497152;28;20161;-68
2022/12/17 14:40:32;;;;;;;25.95;13.88;;;;;;;-3.97;100.00;102288.38;10496032;28;20066;-68
2022/12/17 14:46:19;;;;;;;23.05;14.07;;;;;;;-4.01;100.00;102301.81;10495405;28;20086;-66
2022/12/17 14:50:57;;;;;;;32.27;18.43;;;;;;;-4.05;100.00;102294.84;10496326;28;20071;-67
2022/12/17 14:55:59;;;;;;;39.08;21.23;;;;;;;-3.96;100.00;102308.00;10496163;28;20516;-67
2022/12/17 15:01:07;;;;;;;;;;;;;;;-3.98;100.00;102307.03;10496438;28;20495;-67
2022/12/17 15:06:16;;;;;;;31.92;17.42;;;;;;;-3.82;100.00;102315.34;10495704;28;19963;-67
2022/12/17 15:11:20;;;;;;;26.17;17.27;;;;;;;-3.86;100.00;102310.91;10493020;28;20074;-65
2022/12/17 15:16:22;;;;;;;41.55;18.90;;;;;;;-3.81;100.00;102322.16;10495605;28;20063;-68
2022/12/17 15:21:26;;;;;;;14.77;12.27;;;;;;;-3.93;100.00;102325.94;10495332;28;20507;-66
2022/12/17 15:26:28;;;;;;;34.85;18.80;;;;;;;-3.97;100.00;102338.53;10495086;28;20350;-67
2022/12/17 15:31:30;;;;;;;12.60;10.15;;;;;;;-4.23;100.00;102349.38;10495017;28;20108;-68
2022/12/17 15:36:33;;;;;;;34.20;17.52;;;;;;;-4.17;100.00;102344.50;10494737;28;20117;-67
2022/12/17 15:46:54;;;;;;;36.45;19.05;;;;;;;-4.27;100.00;102342.41;10494762;28;20058;-68
2022/12/17 15:51:57;;;;;;;40.63;19.08;;;;;;;-4.37;100.00;102353.88;10494532;28;20076;-67
2022/12/17 15:56:59;;;;;;;15.40;9.90;;;;;;;-4.50;100.00;102357.53;10495333;28;20071;-68
2022/12/17 16:02:01;;;;;;;19.73;14.33;;;;;;;-4.46;100.00;102371.28;10494171;28;20152;-67
2022/12/17 16:07:05;;;;;;;41.67;20.08;;;;;;;-4.35;100.00;102370.09;10494735;28;20071;-68
2022/12/17 16:12:07;;;;;;;39.72;18.70;;;;;;;-4.62;100.00;102372.28;10491657;28;20516;-67
2022/12/17 16:17:10;;;;;;;20.08;14.15;;;;;;;-4.55;100.00;102364.13;10494477;28;20071;-68
2022/12/17 16:22:13;;;;;;;20.58;14.15;;;;;;;-4.53;100.00;102358.28;10494789;28;20113;-67
2022/12/17 16:27:16;;;;;;;33.85;18.17;;;;;;;-4.63;100.00;102360.38;10494213;28;20112;-69
2022/12/17 16:32:18;;;;;;;30.15;19.08;;;;;;;-4.61;100.00;102367.28;10494966;28;20063;-69
2022/12/17 16:37:23;;;;;;;41.60;20.33;;;;;;;-4.55;100.00;102374.31;10493548;28;20069;-69
2022/12/17 16:42:24;;;;;;;26.98;16.77;;;;;;;-4.55;100.00;102362.44;10491220;28;20137;-68
2022/12/17 16:47:28;;;;;;;44.28;21.92;;;;;;;-4.54;100.00;102365.88;10493416;28;20073;-69
2022/12/17 16:52:31;;;;;;;40.22;17.45;;;;;;;-4.55;100.00;102367.53;10493123;28;20088;-69
2022/12/17 16:57:34;;;;;;;23.00;15.70;;;;;;;-4.54;100.00;102376.06;10491706;28;20220;-68
2022/12/17 17:02:36;;;;;;;35.10;19.52;;;;;;;-4.51;100.00;102371.09;10491228;28;20158;-67
2022/12/17 17:07:40;;;;;;;28.07;15.57;;;;;;;-4.49;100.00;102371.19;10498459;28;20121;-67
2022/12/17 17:12:42;;;;;;;35.83;20.60;;;;;;;-4.80;100.00;102368.09;10526547;28;20319;-69
2022/12/17 17:17:44;;;;;;;34.67;20.23;;;;;;;-4.68;100.00;102371.19;10540833;28;20068;-69
2022/12/17 17:22:47;;;;;;;24.95;18.50;;;;;;;-4.65;100.00;102383.22;10540731;28;20133;-68
2022/12/17 17:27:49;;;;;;;41.28;22.85;;;;;;;-4.69;100.00;102397.47;10540389;28;20064;-69
2022/12/17 17:32:51;;;;;;;43.60;17.67;;;;;;;-4.79;100.00;102386.00;10541014;28;20062;-69
2022/12/17 17:37:54;;;;;;;31.33;18.23;;;;;;;-4.91;100.00;102391.41;10541236;28;20070;-68
2022/12/17 17:42:56;;;;;;;33.15;17.60;;;;;;;-4.92;100.00;102404.91;10537192;28;20085;-69
2022/12/17 17:47:57;;;;;;;32.83;21.10;;;;;;;-4.96;100.00;102394.53;10539699;28;20070;-68
2022/12/17 17:53:00;;;;;;;36.07;20.73;;;;;;;-4.87;100.00;102397.50;10540861;28;20725;-68
2022/12/17 17:58:02;;;;;;;36.88;18.98;;;;;;;-4.85;100.00;102392.47;10541208;28;20345;-69
2022/12/17 18:03:04;;;;;;;26.73;18.50;;;;;;;-4.85;100.00;102392.47;10540042;28;20548;-68
2022/12/17 18:08:07;;;;;;;;;;;;;;;-5.07;100.00;102396.56;10540564;28;20316;-70
2022/12/17 18:18:30;;;;;;;8.68;7.50;;;;;;;-5.27;100.00;102405.81;10539735;28;20147;-70
2022/12/17 18:23:33;;;;;;;26.65;15.77;;;;;;;-5.47;100.00;102401.47;10539558;28;20086;-69
2022/12/17 18:28:35;;;;;;;26.58;15.18;;;;;;;-5.40;100.00;102406.88;10539395;28;20062;-71
2022/12/17 18:33:40;;;;;;;24.73;12.90;;;;;;;-5.35;100.00;102397.78;10539699;28;20072;-70
2022/12/17 18:38:44;;;;;;;29.98;16.33;;;;;;;-5.28;100.00;102404.91;10539199;28;20072;-69
2022/12/17 18:43:46;;;;;;;24.50;15.57;;;;;;;-5.29;100.00;102403.19;10536167;28;20077;-69
2022/12/17 18:48:50;;;;;;;29.48;14.52;;;;;;;-5.21;100.00;102398.44;10538373;28;20070;-70
2022/12/17 18:53:57;;;;;;;17.00;11.45;;;;;;;-5.40;100.00;102404.31;10538374;28;20121;-69
2022/12/17 18:58:59;;;;;;;20.98;12.63;;;;;;;-5.51;100.00;102407.19;10538745;28;20058;-69
2022/12/17 19:04:02;;;;;;;9.82;8.88;;;;;;;-5.46;100.00;102412.53;10537658;28;20551;-68
2022/12/17 19:09:08;;;;;;;25.08;14.35;;;;;;;-5.50;100.00;102408.09;10537955;28;20120;-69
2022/12/17 19:14:10;;;;;;;15.02;12.35;;;;;;;-5.48;100.00;102412.44;10536110;28;20131;-68
2022/12/17 19:19:13;;;;;;;19.58;13.80;;;;;;;-5.47;100.00;102419.28;10537446;28;20067;-70
2022/12/17 19:24:19;;;;;;;14.20;11.73;;;;;;;-5.46;100.00;102426.13;10537378;28;20612;-69
2022/12/17 19:29:22;;;;;;;24.75;15.07;;;;;;;-5.38;100.00;102438.38;10536346;28;20098;-68
2022/12/17 19:34:23;;;;;;;18.75;15.15;;;;;;;-5.30;100.00;102431.97;10536288;28;20070;-69
2022/12/17 19:39:27;;;;;;;22.17;14.15;;;;;;;-5.33;100.00;102442.00;10535551;28;20070;-70
2022/12/17 19:44:28;;;;;;;22.40;13.80;;;;;;;-5.35;100.00;102441.03;10532861;28;20085;-68
2022/12/17 19:49:31;;;;;;;9.40;8.63;;;;;;;-5.31;100.00;102432.75;10535059;28;20105;-70
2022/12/17 19:54:34;;;;;;;30.15;14.45;;;;;;;-5.28;100.00;102435.47;10534832;28;20337;-68
2022/12/17 19:59:36;;;;;;;24.05;15.20;;;;;;;-5.42;100.00;102434.78;10535431;28;20460;-71
2022/12/17 20:04:38;;;;;;;12.33;10.90;;;;;;;-5.57;100.00;102437.44;10502067;28;20096;-69
2022/12/17 20:09:44;;;;;;;23.83;16.15;;;;;;;-5.61;100.00;102430.47;10492913;28;20704;-68
2022/12/17 20:14:45;;;;;;;18.55;12.55;;;;;;;-5.57;100.00;102448.47;10490103;28;20579;-69
2022/12/17 20:19:48;;;;;;;19.38;11.93;;;;;;;-5.52;100.00;102466.53;10493427;28;20103;-71
2022/12/17 20:24:52;;;;;;;30.98;13.20;;;;;;;-5.61;100.00;102471.16;10492467;28;20087;-68
2022/12/17 20:29:53;;;;;;;18.92;12.30;;;;;;;-5.57;100.00;102478.16;10492570;28;20516;-69
2022/12/17 20:34:55;;;;;;;28.50;15.63;;;;;;;-5.53;100.00;102459.72;10492524;28;20074;-69
2022/12/17 20:39:58;;;;;;;7.47;6.78;;;;;;;-5.66;100.00;102455.66;10496470;28;20069;-69
2022/12/17 20:45:00;;;;;;;27.17;13.02;;;;;;;-5.77;100.00;102439.84;10497897;28;20142;-70
2022/12/17 20:50:02;;;;;;;17.30;14.07;;;;;;;-5.77;100.00;102446.59;10500787;28;20469;-70
2022/12/17 20:55:07;;;;;;;21.00;15.07;;;;;;;-5.69;100.00;102441.13;10499888;28;20367;-70
2022/12/17 21:00:11;;;;;;;22.63;12.52;;;;;;;-5.66;100.00;102442.94;10499342;28;20622;-70
2022/12/17 21:05:12;;;;;;;21.55;13.35;;;;;;;-5.72;100.00;102442.63;10499347;28;20079;-71
2022/12/17 21:10:16;;;;;;;22.75;13.30;;;;;;;-5.73;100.00;102446.84;10499466;28;20119;-69
2022/12/17 21:15:18;;;;;;;16.65;13.13;;;;;;;-5.77;100.00;102449.16;10497641;28;20429;-70
2022/12/17 21:20:19;;;;;;;24.30;15.27;;;;;;;-5.80;100.00;102449.88;10500473;28;20072;-71
2022/12/17 21:25:23;;;;;;;20.42;12.57;;;;;;;-5.81;100.00;102460.84;10499532;28;20472;-70
2022/12/17 21:30:24;;;;;;;23.30;15.98;;;;;;;-5.81;100.00;102453.22;10537657;28;20072;-70
2022/12/17 21:35:27;;;;;;;12.80;11.57;;;;;;;-5.87;100.00;102457.97;10541175;28;20064;-70
2022/12/17 21:40:29;;;;;;;;;;;;;;;-5.90;100.00;102465.44;10541262;28;20526;-70
2022/12/17 21:45:36;;;;;;;11.88;10.73;;;;;;;-5.93;100.00;102462.75;10538362;28;19999;-71
2022/12/17 21:50:41;;;;;;;13.98;9.90;;;;;;;-5.91;100.00;102471.31;10540171;28;20102;-70
2022/12/17 21:55:44;;;;;;;10.38;8.40;;;;;;;-5.92;100.00;102474.66;10540436;28;20066;-71
2022/12/17 22:00:46;;;;;;;16.27;11.93;;;;;;;-5.98;100.00;102471.03;10540489;28;20101;-70
2022/12/17 22:05:47;;;;;;;17.00;12.55;;;;;;;-6.02;100.00;102469.09;10540133;28;20084;-69
2022/12/17 22:10:52;;;;;;;9.05;7.65;;;;;;;-6.10;100.00;102475.47;10539866;28;20104;-72
2022/12/17 22:15:53;;;;;;;16.77;10.77;;;;;;;-6.12;100.00;102488.09;10538925;28;20065;-71
2022/12/17 22:21:01;;;;;;;14.10;11.40;;;;;;;-6.17;100.00;102493.75;10539782;28;20129;-69
2022/12/17 22:26:11;;;;;;;22.67;13.13;;;;;;;-6.27;100.00;102498.31;10539349;28;20540;-71
2022/12/17 22:36:34;;;;;;;17.48;11.18;;;;;;;-6.42;100.00;102495.84;10539189;28;20064;-71
2022/12/17 22:46:58;;;;;;;24.60;11.15;;;;;;;-6.76;100.00;102492.31;10538732;28;20080;-70
2022/12/17 22:52:00;;;;;;;12.27;10.45;;;;;;;-6.74;100.00;102485.63;10538252;28;20073;-70
2022/12/17 22:57:03;;;;;;;13.13;11.60;;;;;;;-6.79;100.00;102487.06;10538954;28;20072;-70
2022/12/17 23:02:06;;;;;;;11.43;9.18;;;;;;;-6.80;100.00;102490.41;10537107;28;20107;-70
2022/12/17 23:07:08;;;;;;;17.60;12.55;;;;;;;-7.01;100.00;102492.59;10537740;28;20134;-70
2022/12/17 23:17:30;;;;;;;11.30;10.05;;;;;;;-7.39;100.00;102469.31;10526768;28;20077;-70
2022/12/17 23:22:33;;;;;;;14.07;9.43;;;;;;;-7.15;100.00;102458.81;10537827;28;20076;-71
2022/12/17 23:27:36;;;;;;;9.43;8.55;;;;;;;-7.09;100.00;102455.75;10537213;28;20544;-70
2022/12/17 23:32:38;;;;;;;14.90;10.02;;;;;;;-7.29;100.00;102456.34;10536903;28;20488;-70
2022/12/17 23:37:40;;;;;;;14.75;9.95;;;;;;;-7.42;100.00;102464.94;10537490;28;20075;-70
2022/12/17 23:42:44;;;;;;;;;;;;;;;-7.47;100.00;102473.06;10534944;28;20517;-71
2022/12/17 23:47:46;;;;;;;12.63;7.85;;;;;;;-7.59;100.00;102473.19;10536383;28;19968;-70
2022/12/17 23:52:48;;;;;;;10.00;9.00;;;;;;;-7.78;100.00;102473.00;10536180;28;20073;-70
2022/12/17 23:57:55;;;;;;;8.82;8.00;;;;;;;-7.77;100.00;102477.28;10536512;28;20116;-71
